createdAt,value
2022-10-30T00:01:14.541Z,98098.91
2022-10-30T00:03:41.066Z,98101.38
2022-10-30T00:06:07.952Z,98098.28
2022-10-30T00:08:34.833Z,98090.50
2022-10-30T00:11:10.065Z,98100.94
2022-10-30T00:13:37.769Z,98085.56
2022-10-30T00:16:07.134Z,98085.94
2022-10-30T00:18:36.795Z,98089.97
2022-10-30T00:21:09.243Z,98105.16
2022-10-30T00:23:36.014Z,98085.81
2022-10-30T00:26:04.696Z,98091.00
2022-10-30T00:28:31.339Z,98075.44
2022-10-30T00:31:02.390Z,98090.38
2022-10-30T00:33:29.097Z,98069.69
2022-10-30T00:35:55.663Z,98085.00
2022-10-30T00:38:22.367Z,98089.78
2022-10-30T00:40:48.949Z,98080.41
2022-10-30T00:43:35.325Z,98060.34
2022-10-30T00:46:38.206Z,98081.91
2022-10-30T00:49:18.366Z,98085.16
2022-10-30T00:51:51.611Z,98060.66
2022-10-30T00:54:19.291Z,98061.53
2022-10-30T00:56:47.929Z,98064.59
2022-10-30T00:59:20.857Z,98059.75
2022-10-30T01:01:48.050Z,98060.78
2022-10-30T01:04:19.195Z,98067.38
2022-10-30T01:06:48.495Z,98071.41
2022-10-30T01:09:18.731Z,98055.13
2022-10-30T01:11:47.923Z,98050.66
2022-10-30T01:14:18.706Z,98053.50
2022-10-30T01:16:57.414Z,98050.16
2022-10-30T01:19:57.639Z,98054.00
2022-10-30T01:22:34.046Z,98033.34
2022-10-30T01:25:28.314Z,98048.03
2022-10-30T01:28:32.453Z,98053.50
2022-10-30T01:31:17.558Z,98067.25
2022-10-30T01:33:54.451Z,98067.13
2022-10-30T01:36:31.243Z,98048.81
2022-10-30T01:39:02.901Z,98065.41
2022-10-30T01:41:29.433Z,98046.78
2022-10-30T01:44:00.610Z,98062.22
2022-10-30T01:47:05.509Z,98058.06
2022-10-30T01:50:03.720Z,98064.38
2022-10-30T01:52:42.072Z,98062.06
2022-10-30T01:55:19.200Z,98065.13
2022-10-30T01:58:01.908Z,98060.28
2022-10-30T02:00:28.774Z,98069.66
2022-10-30T02:02:55.833Z,98044.97
2022-10-30T02:05:37.467Z,98066.34
2022-10-30T02:08:04.142Z,98055.47
2022-10-30T02:10:31.705Z,98053.94
2022-10-30T02:12:58.250Z,98054.94
2022-10-30T02:15:24.779Z,98046.31
2022-10-30T02:17:51.509Z,98028.59
2022-10-30T02:20:20.470Z,98049.34
2022-10-30T02:22:47.720Z,98048.75
2022-10-30T02:25:15.006Z,98038.44
2022-10-30T02:27:42.064Z,98049.34
2022-10-30T02:30:09.379Z,98040.09
2022-10-30T02:32:36.073Z,98023.22
2022-10-30T02:35:02.588Z,98031.47
2022-10-30T02:37:29.179Z,98041.78
2022-10-30T02:39:55.653Z,98045.88
2022-10-30T02:42:23.208Z,98034.13
2022-10-30T02:44:49.997Z,98017.66
2022-10-30T02:47:16.511Z,98018.94
2022-10-30T02:49:43.067Z,98012.56
2022-10-30T02:52:09.621Z,98013.53
2022-10-30T02:54:36.399Z,98032.09
2022-10-30T02:57:02.991Z,98024.91
2022-10-30T02:59:30.206Z,98037.50
2022-10-30T03:01:56.836Z,98026.25
2022-10-30T03:04:23.439Z,98006.34
2022-10-30T03:06:49.948Z,98040.41
2022-10-30T03:09:16.497Z,98045.59
2022-10-30T03:11:44.437Z,98040.81
2022-10-30T03:14:11.559Z,98033.81
2022-10-30T03:16:38.322Z,98031.22
2022-10-30T03:19:05.465Z,98019.88
2022-10-30T03:21:31.995Z,98028.16
2022-10-30T03:23:58.646Z,98014.38
2022-10-30T03:26:25.227Z,98007.00
2022-10-30T03:28:51.918Z,98032.47
2022-10-30T03:31:19.716Z,98026.84
2022-10-30T03:33:46.615Z,98012.59
2022-10-30T03:36:14.679Z,98031.78
2022-10-30T03:38:42.077Z,98018.13
2022-10-30T03:41:09.303Z,98040.22
2022-10-30T03:43:35.880Z,98009.66
2022-10-30T03:46:02.449Z,98009.13
2022-10-30T03:48:29.460Z,98032.88
2022-10-30T03:50:57.595Z,98036.53
2022-10-30T03:53:26.369Z,98034.84
2022-10-30T03:55:56.935Z,98036.97
2022-10-30T03:58:23.669Z,98033.81
2022-10-30T04:00:50.198Z,98027.63
2022-10-30T04:03:16.762Z,98040.81
2022-10-30T04:05:43.256Z,98031.94
2022-10-30T04:08:13.790Z,98034.84
2022-10-30T04:10:47.544Z,98039.25
2022-10-30T04:13:16.783Z,98033.88
2022-10-30T04:15:43.733Z,98035.00
2022-10-30T04:18:14.942Z,98037.88
2022-10-30T04:20:41.436Z,98029.59
2022-10-30T04:23:10.662Z,98021.97
2022-10-30T04:25:37.193Z,98036.22
2022-10-30T04:28:04.236Z,98029.63
2022-10-30T04:30:35.252Z,98036.84
2022-10-30T04:33:06.345Z,98025.06
2022-10-30T04:35:39.178Z,98043.81
2022-10-30T04:38:11.365Z,98040.47
2022-10-30T04:40:39.951Z,98030.81
2022-10-30T04:43:07.543Z,98044.38
2022-10-30T04:45:34.942Z,98028.81
2022-10-30T04:48:06.869Z,98031.66
2022-10-30T04:50:34.522Z,98025.44
2022-10-30T04:53:05.732Z,98042.31
2022-10-30T04:55:32.971Z,98022.22
2022-10-30T04:58:00.776Z,98042.59
2022-10-30T05:00:30.280Z,98032.66
2022-10-30T05:03:02.098Z,98034.66
2022-10-30T05:05:30.143Z,98014.72
2022-10-30T05:07:57.453Z,98033.94
2022-10-30T05:10:24.582Z,98029.31
2022-10-30T05:12:53.872Z,98031.84
2022-10-30T05:15:21.153Z,98013.34
2022-10-30T05:17:51.666Z,98035.78
2022-10-30T05:20:19.053Z,98019.72
2022-10-30T05:22:46.248Z,98030.91
2022-10-30T05:25:12.911Z,98008.47
2022-10-30T05:27:39.405Z,98005.47
2022-10-30T05:30:06.464Z,97998.13
2022-10-30T05:32:32.985Z,98011.56
2022-10-30T05:35:01.554Z,98015.66
2022-10-30T05:37:28.223Z,98022.91
2022-10-30T05:39:54.738Z,98019.19
2022-10-30T05:42:21.609Z,98015.53
2022-10-30T05:45:00.481Z,98031.59
2022-10-30T05:47:27.833Z,98034.41
2022-10-30T05:49:54.359Z,98031.13
2022-10-30T05:52:21.231Z,98030.84
2022-10-30T05:54:47.989Z,98015.78
2022-10-30T05:57:14.871Z,98022.34
2022-10-30T05:59:41.826Z,97980.63
2022-10-30T06:02:08.879Z,97993.84
2022-10-30T06:04:35.647Z,98009.50
2022-10-30T06:07:06.604Z,97999.84
2022-10-30T06:09:36.097Z,97996.56
2022-10-30T06:12:08.255Z,98012.03
2022-10-30T06:14:35.096Z,98011.47
2022-10-30T06:17:05.076Z,98033.19
2022-10-30T06:19:33.809Z,98016.03
2022-10-30T06:22:04.793Z,98025.16
2022-10-30T06:24:33.607Z,98013.88
2022-10-30T06:27:00.079Z,98012.31
2022-10-30T06:29:26.872Z,98026.03
2022-10-30T06:31:54.272Z,98026.50
2022-10-30T06:34:21.799Z,98033.13
2022-10-30T06:36:48.554Z,98020.25
2022-10-30T06:39:15.395Z,98032.75
2022-10-30T06:41:41.945Z,98033.13
2022-10-30T06:44:08.447Z,98032.91
2022-10-30T06:46:35.003Z,98049.00
2022-10-30T06:49:04.013Z,98032.69
2022-10-30T06:51:37.433Z,98039.84
2022-10-30T06:54:06.957Z,98049.78
2022-10-30T06:56:36.653Z,98050.63
2022-10-30T06:59:06.195Z,98025.47
2022-10-30T07:01:36.256Z,98044.97
2022-10-30T07:04:06.018Z,98052.03
2022-10-30T07:06:33.955Z,98059.97
2022-10-30T07:09:00.444Z,98055.63
2022-10-30T07:11:27.028Z,98031.03
2022-10-30T07:13:53.576Z,98038.91
2022-10-30T07:16:20.100Z,98058.88
2022-10-30T07:18:46.622Z,98044.31
2022-10-30T07:23:57.334Z,98077.72
2022-10-30T07:26:23.826Z,98052.28
2022-10-30T07:28:50.432Z,98071.88
2022-10-30T07:31:24.080Z,98064.41
2022-10-30T07:34:04.180Z,98081.53
2022-10-30T07:36:30.784Z,98066.44
2022-10-30T07:38:57.324Z,98091.34
2022-10-30T07:41:23.846Z,98075.59
2022-10-30T07:43:50.331Z,98046.88
2022-10-30T07:46:16.888Z,98061.72
2022-10-30T07:48:43.387Z,98089.50
2022-10-30T07:51:09.941Z,98091.22
2022-10-30T07:53:39.590Z,98080.16
2022-10-30T07:56:09.270Z,98094.59
2022-10-30T07:58:41.324Z,98081.16
2022-10-30T08:01:11.715Z,98102.78
2022-10-30T08:03:38.311Z,98082.66
2022-10-30T08:06:05.068Z,98104.84
2022-10-30T08:08:33.505Z,98106.75
2022-10-30T08:11:00.226Z,98096.53
2022-10-30T08:13:26.784Z,98105.16
2022-10-30T08:15:53.340Z,98101.22
2022-10-30T08:18:19.953Z,98110.91
2022-10-30T08:20:50.760Z,98107.78
2022-10-30T08:23:19.757Z,98106.13
2022-10-30T08:25:47.175Z,98084.66
2022-10-30T08:28:14.510Z,98092.38
2022-10-30T08:30:41.346Z,98114.03
2022-10-30T08:33:13.680Z,98110.09
2022-10-30T08:35:47.914Z,98113.72
2022-10-30T08:38:14.517Z,98096.03
2022-10-30T08:40:41.034Z,98115.31
2022-10-30T08:43:08.230Z,98106.66
2022-10-30T08:45:35.305Z,98129.94
2022-10-30T08:48:06.618Z,98118.41
2022-10-30T08:50:37.003Z,98102.97
2022-10-30T08:53:05.790Z,98137.66
2022-10-30T08:55:34.310Z,98141.63
2022-10-30T08:58:04.454Z,98140.41
2022-10-30T09:00:31.189Z,98128.56
2022-10-30T09:02:58.829Z,98115.53
2022-10-30T09:05:25.872Z,98129.03
2022-10-30T09:08:01.328Z,98135.38
2022-10-30T09:10:29.475Z,98133.44
2022-10-30T09:12:57.907Z,98131.38
2022-10-30T09:15:25.700Z,98116.72
2022-10-30T09:18:00.226Z,98145.06
2022-10-30T09:20:28.180Z,98123.22
2022-10-30T09:22:54.999Z,98140.28
2022-10-30T09:25:22.189Z,98137.38
2022-10-30T09:27:54.496Z,98118.69
2022-10-30T09:30:21.098Z,98136.94
2022-10-30T09:32:57.739Z,98131.97
2022-10-30T09:35:25.270Z,98136.91
2022-10-30T09:37:52.074Z,98111.50
2022-10-30T09:40:22.751Z,98133.28
2022-10-30T09:42:50.660Z,98133.13
2022-10-30T09:45:46.034Z,98131.13
2022-10-30T09:48:34.737Z,98138.13
2022-10-30T09:51:20.093Z,98129.28
2022-10-30T09:54:10.879Z,98133.31
2022-10-30T09:56:45.284Z,98133.31
2022-10-30T09:59:17.822Z,98148.38
2022-10-30T10:02:11.621Z,98142.09
2022-10-30T10:04:49.746Z,98141.84
2022-10-30T10:07:28.003Z,98141.84
2022-10-30T10:10:01.231Z,98135.63
2022-10-30T10:12:43.682Z,98147.81
2022-10-30T10:15:21.843Z,98138.59
2022-10-30T10:17:48.511Z,98131.50
2022-10-30T10:20:27.677Z,98131.50
2022-10-30T10:22:58.064Z,98146.72
2022-10-30T10:25:25.768Z,98142.09
2022-10-30T10:28:14.608Z,98145.38
2022-10-30T10:30:43.753Z,98118.41
2022-10-30T10:33:38.704Z,98152.19
2022-10-30T10:36:08.600Z,98147.47
2022-10-30T10:38:57.625Z,98140.63
2022-10-30T10:41:49.710Z,98158.97
2022-10-30T10:44:43.652Z,98155.41
2022-10-30T10:47:15.902Z,98158.41
2022-10-30T10:50:07.159Z,98147.75
2022-10-30T10:52:46.756Z,98136.41
2022-10-30T10:55:17.910Z,98136.97
2022-10-30T10:57:45.610Z,98151.22
2022-10-30T11:00:18.363Z,98155.84
2022-10-30T11:03:10.681Z,98155.94
2022-10-30T11:05:55.388Z,98145.38
2022-10-30T11:08:36.017Z,98145.63
2022-10-30T11:11:05.623Z,98144.00
2022-10-30T11:13:36.133Z,98141.53
2022-10-30T11:16:29.892Z,98142.84
2022-10-30T11:19:03.732Z,98137.81
2022-10-30T11:21:41.967Z,98136.66
2022-10-30T11:24:29.682Z,98131.03
2022-10-30T11:26:58.713Z,98131.69
2022-10-30T11:29:29.855Z,98134.53
2022-10-30T11:32:17.631Z,98112.53
2022-10-30T11:34:44.143Z,98126.66
2022-10-30T11:37:31.030Z,98125.97
2022-10-30T11:40:10.550Z,98117.59
2022-10-30T11:42:41.966Z,98118.69
2022-10-30T11:45:24.157Z,98122.50
2022-10-30T11:47:52.178Z,98119.31
2022-10-30T11:50:22.986Z,98112.69
2022-10-30T11:52:53.210Z,98124.06
2022-10-30T11:55:26.623Z,98121.22
2022-10-30T11:57:57.125Z,98121.94
2022-10-30T12:00:25.068Z,98113.97
2022-10-30T12:02:54.725Z,98115.78
2022-10-30T12:05:27.203Z,98114.97
2022-10-30T12:08:14.699Z,98113.06
2022-10-30T12:10:53.086Z,98114.28
2022-10-30T12:13:22.742Z,98107.59
2022-10-30T12:16:06.279Z,98113.50
2022-10-30T12:18:36.277Z,98107.47
2022-10-30T12:21:07.139Z,98099.66
2022-10-30T12:23:38.200Z,98096.75
2022-10-30T12:26:12.755Z,98088.94
2022-10-30T12:28:40.595Z,98098.34
2022-10-30T12:31:18.340Z,98100.88
2022-10-30T12:34:06.963Z,98105.13
2022-10-30T12:36:48.135Z,98102.88
2022-10-30T12:39:33.655Z,98096.25
2022-10-30T12:42:10.533Z,98095.94
2022-10-30T12:44:43.690Z,98093.47
2022-10-30T12:47:25.370Z,98093.13
2022-10-30T12:49:59.461Z,98089.94
2022-10-30T12:52:35.591Z,98089.28
2022-10-30T12:55:04.361Z,98082.13
2022-10-30T12:57:43.241Z,98080.63
2022-10-30T13:00:15.694Z,98080.97
2022-10-30T13:02:54.088Z,98085.06
2022-10-30T13:05:43.880Z,98090.53
2022-10-30T13:08:32.269Z,98093.31
2022-10-30T13:11:11.888Z,98082.19
2022-10-30T13:13:47.005Z,98100.25
2022-10-30T13:16:18.943Z,98088.78
2022-10-30T13:18:45.455Z,98088.03
2022-10-30T13:21:11.920Z,98093.25
2022-10-30T13:24:00.201Z,98089.69
2022-10-30T13:26:52.889Z,98096.47
2022-10-30T13:29:28.078Z,98093.19
2022-10-30T13:32:39.208Z,98103.91
2022-10-30T13:35:40.003Z,98097.66
2022-10-30T13:41:25.290Z,98073.97
2022-10-30T13:44:06.528Z,98083.81
2022-10-30T13:46:32.987Z,98091.84
2022-10-30T13:49:31.052Z,98084.81
2022-10-30T13:52:17.864Z,98090.81
2022-10-30T13:54:48.105Z,98092.31
2022-10-30T13:57:26.585Z,98076.84
2022-10-30T14:00:04.305Z,98086.34
2022-10-30T14:02:43.346Z,98089.34
2022-10-30T14:05:25.311Z,98094.53
2022-10-30T14:08:09.631Z,98095.06
2022-10-30T14:10:47.551Z,98094.25
2022-10-30T14:13:17.811Z,98093.41
2022-10-30T14:15:46.363Z,98097.72
2022-10-30T14:18:12.864Z,98102.88
2022-10-30T14:20:44.668Z,98100.44
2022-10-30T14:23:17.180Z,98100.88
2022-10-30T14:25:43.984Z,98106.25
2022-10-30T14:28:22.526Z,98112.03
2022-10-30T14:31:02.311Z,98116.25
2022-10-30T14:33:40.754Z,98115.09
2022-10-30T14:36:16.661Z,98114.06
2022-10-30T14:38:58.400Z,98118.25
2022-10-30T14:41:39.555Z,98117.41
2022-10-30T14:44:16.990Z,98120.91
2022-10-30T14:46:54.533Z,98118.38
2022-10-30T14:49:34.062Z,98116.63
2022-10-30T14:52:42.659Z,98113.53
2022-10-30T14:55:35.981Z,98115.00
2022-10-30T14:58:02.614Z,98115.84
2022-10-30T15:00:45.314Z,98116.56
2022-10-30T15:03:47.521Z,98125.94
2022-10-30T15:06:22.812Z,98123.66
2022-10-30T15:09:05.830Z,98122.47
2022-10-30T15:11:56.925Z,98131.25
2022-10-30T15:17:36.997Z,98135.94
2022-10-30T15:20:15.012Z,98142.88
2022-10-30T15:22:42.116Z,98137.63
2022-10-30T15:25:23.126Z,98145.41
2022-10-30T15:27:53.524Z,98142.53
2022-10-30T15:30:24.589Z,98151.97
2022-10-30T15:32:51.462Z,98147.56
2022-10-30T15:35:23.896Z,98147.28
2022-10-30T15:37:57.646Z,98152.63
2022-10-30T15:40:24.846Z,98147.47
2022-10-30T15:42:52.700Z,98159.09
2022-10-30T15:45:25.865Z,98149.50
2022-10-30T15:48:26.889Z,98155.94
2022-10-30T15:51:01.117Z,98147.06
2022-10-30T15:54:12.332Z,98148.63
2022-10-30T15:57:18.039Z,98147.00
2022-10-30T15:59:35.612Z,98164.31
2022-10-30T16:02:02.323Z,98163.38
2022-10-30T16:04:35.412Z,98162.47
2022-10-30T16:07:11.325Z,98160.13
2022-10-30T16:09:40.317Z,98153.38
2022-10-30T16:12:11.777Z,98164.66
2022-10-30T16:14:41.243Z,98160.56
2022-10-30T16:17:11.473Z,98187.41
2022-10-30T16:19:46.986Z,98184.47
2022-10-30T16:22:19.278Z,98187.19
2022-10-30T16:24:46.113Z,98191.44
2022-10-30T16:27:18.445Z,98195.41
2022-10-30T16:29:56.174Z,98183.22
2022-10-30T16:32:25.939Z,98206.00
2022-10-30T16:34:57.525Z,98201.16
2022-10-30T16:37:38.597Z,98209.78
2022-10-30T16:40:17.027Z,98218.88
2022-10-30T16:42:52.809Z,98218.78
2022-10-30T16:45:19.292Z,98218.91
2022-10-30T16:48:08.177Z,98226.91
2022-10-30T16:50:40.361Z,98206.75
2022-10-30T16:53:15.203Z,98224.28
2022-10-30T16:55:42.003Z,98224.56
2022-10-30T16:58:13.742Z,98224.66
2022-10-30T17:00:51.745Z,98234.56
2022-10-30T17:03:25.013Z,98236.09
2022-10-30T17:06:03.418Z,98226.66
2022-10-30T17:08:43.718Z,98238.53
2022-10-30T17:11:19.555Z,98240.03
2022-10-30T17:13:54.993Z,98239.81
2022-10-30T17:16:27.913Z,98246.22
2022-10-30T17:18:57.417Z,98244.00
2022-10-30T17:21:29.823Z,98245.84
2022-10-30T17:23:59.104Z,98249.16
2022-10-30T17:26:28.083Z,98258.16
2022-10-30T17:28:54.644Z,98265.63
2022-10-30T17:31:29.818Z,98275.22
2022-10-30T17:34:17.855Z,98279.22
2022-10-30T17:36:45.701Z,98249.59
2022-10-30T17:39:15.984Z,98270.06
2022-10-30T17:41:46.167Z,98287.81
2022-10-30T17:44:22.943Z,98282.53
2022-10-30T17:46:52.030Z,98292.03
2022-10-30T17:49:24.636Z,98299.44
2022-10-30T17:51:51.216Z,98299.22
2022-10-30T17:54:18.000Z,98297.16
2022-10-30T17:56:44.488Z,98302.72
2022-10-30T17:59:14.395Z,98304.97
2022-10-30T18:01:41.779Z,98311.59
2022-10-30T18:04:21.312Z,98309.75
2022-10-30T18:06:48.746Z,98306.09
2022-10-30T18:09:15.362Z,98302.38
2022-10-30T18:11:45.822Z,98323.19
2022-10-30T18:14:15.165Z,98315.38
2022-10-30T18:16:43.663Z,98317.06
2022-10-30T18:19:13.558Z,98324.69
2022-10-30T18:21:40.135Z,98314.00
2022-10-30T18:24:16.711Z,98320.81
2022-10-30T18:29:30.748Z,98325.44
2022-10-30T18:31:57.232Z,98328.56
2022-10-30T18:34:23.768Z,98335.19
2022-10-30T18:36:50.306Z,98317.88
2022-10-30T18:39:17.088Z,98331.69
2022-10-30T18:41:47.693Z,98340.97
2022-10-30T18:44:16.550Z,98334.38
2022-10-30T18:46:48.862Z,98336.84
2022-10-30T18:49:15.865Z,98339.75
2022-10-30T18:51:44.863Z,98339.56
2022-10-30T18:54:15.259Z,98340.59
2022-10-30T18:56:44.692Z,98324.75
2022-10-30T18:59:11.230Z,98326.63
2022-10-30T19:01:38.242Z,98332.16
2022-10-30T19:04:09.539Z,98325.16
2022-10-30T19:06:39.048Z,98316.72
2022-10-30T19:09:06.485Z,98329.06
2022-10-30T19:11:33.839Z,98325.16
2022-10-30T19:14:00.483Z,98330.28
2022-10-30T19:16:27.568Z,98335.44
2022-10-30T19:18:54.188Z,98323.91
2022-10-30T19:21:23.301Z,98328.84
2022-10-30T19:23:49.958Z,98322.69
2022-10-30T19:26:17.458Z,98311.78
2022-10-30T19:28:47.117Z,98326.38
2022-10-30T19:31:18.705Z,98326.41
2022-10-30T19:33:52.906Z,98310.97
2022-10-30T19:36:30.297Z,98320.47
2022-10-30T19:38:57.219Z,98306.44
2022-10-30T19:41:26.939Z,98307.28
2022-10-30T19:43:53.619Z,98312.84
2022-10-30T19:46:20.734Z,98326.69
2022-10-30T19:48:57.380Z,98316.75
2022-10-30T19:51:25.236Z,98311.81
2022-10-30T19:53:53.713Z,98318.38
2022-10-30T19:56:21.256Z,98346.38
2022-10-30T19:58:48.096Z,98337.66
2022-10-30T20:01:17.584Z,98324.41
2022-10-30T20:03:47.768Z,98326.09
2022-10-30T20:06:18.910Z,98333.56
2022-10-30T20:09:11.238Z,98321.41
2022-10-30T20:11:39.576Z,98317.06
2022-10-30T20:14:06.102Z,98311.72
2022-10-30T20:16:32.668Z,98320.41
2022-10-30T20:18:59.167Z,98311.34
2022-10-30T20:21:27.340Z,98298.16
2022-10-30T20:24:15.602Z,98271.34
2022-10-30T20:26:42.221Z,98304.78
2022-10-30T20:29:09.395Z,98323.72
2022-10-30T20:31:35.908Z,98293.41
2022-10-30T20:34:02.714Z,98322.50
2022-10-30T20:36:29.343Z,98318.81
2022-10-30T20:38:55.887Z,98326.03
2022-10-30T20:41:25.262Z,98320.66
2022-10-30T20:43:52.416Z,98322.28
2022-10-30T20:46:19.395Z,98329.53
2022-10-30T20:48:48.341Z,98329.91
2022-10-30T20:51:14.998Z,98314.25
2022-10-30T20:53:41.793Z,98301.25
2022-10-30T20:56:11.731Z,98331.56
2022-10-30T20:58:38.390Z,98319.59
2022-10-30T21:01:14.873Z,98340.22
2022-10-30T21:03:41.522Z,98344.13
2022-10-30T21:06:09.946Z,98317.94
2022-10-30T21:08:36.791Z,98324.72
2022-10-30T21:11:05.287Z,98319.78
2022-10-30T21:13:33.999Z,98339.53
2022-10-30T21:16:03.141Z,98336.63
2022-10-30T21:18:33.147Z,98345.38
2022-10-30T21:21:03.964Z,98350.53
2022-10-30T21:23:30.561Z,98327.16
2022-10-30T21:26:05.820Z,98329.25
2022-10-30T21:28:32.562Z,98342.53
2022-10-30T21:31:08.099Z,98314.03
2022-10-30T21:33:36.292Z,98329.38
2022-10-30T21:36:15.354Z,98336.63
2022-10-30T21:38:44.449Z,98322.00
2022-10-30T21:41:13.003Z,98329.44
2022-10-30T21:43:40.663Z,98322.03
2022-10-30T21:46:08.664Z,98325.78
2022-10-30T21:48:37.913Z,98322.03
2022-10-30T21:51:20.131Z,98325.75
2022-10-30T21:53:50.463Z,98335.84
2022-10-30T21:56:23.441Z,98327.38
2022-10-30T21:58:55.304Z,98315.81
2022-10-30T22:01:30.720Z,98323.44
2022-10-30T22:03:59.899Z,98322.44
2022-10-30T22:06:26.869Z,98328.19
2022-10-30T22:08:55.252Z,98318.66
2022-10-30T22:11:23.675Z,98323.16
2022-10-30T22:13:57.738Z,98313.09
2022-10-30T22:16:25.343Z,98322.97
2022-10-30T22:18:52.489Z,98326.47
2022-10-30T22:21:20.099Z,98313.47
2022-10-30T22:23:46.655Z,98316.50
2022-10-30T22:26:15.863Z,98303.75
2022-10-30T22:28:43.389Z,98314.63
2022-10-30T22:31:15.331Z,98308.25
2022-10-30T22:33:42.768Z,98308.84
2022-10-30T22:36:15.418Z,98301.75
2022-10-30T22:38:41.982Z,98293.78
2022-10-30T22:41:14.357Z,98314.75
2022-10-30T22:43:42.731Z,98317.13
2022-10-30T22:46:10.469Z,98306.84
2022-10-30T22:48:37.846Z,98280.63
2022-10-30T22:51:10.563Z,98312.59
2022-10-30T22:53:41.806Z,98294.84
2022-10-30T22:56:21.378Z,98290.78
2022-10-30T22:58:52.111Z,98290.56
2022-10-30T23:01:25.734Z,98275.94
2022-10-30T23:03:55.650Z,98270.34
2022-10-30T23:06:26.055Z,98275.09
2022-10-30T23:08:57.581Z,98272.56
2022-10-30T23:11:24.495Z,98257.41
2022-10-30T23:13:54.818Z,98270.19
2022-10-30T23:16:26.372Z,98274.94
2022-10-30T23:18:55.897Z,98272.94
2022-10-30T23:21:28.446Z,98268.06
2022-10-30T23:23:55.836Z,98260.59
2022-10-30T23:26:29.898Z,98275.38
2022-10-30T23:28:58.014Z,98272.72
2022-10-30T23:31:36.889Z,98265.34
2022-10-30T23:34:09.868Z,98268.03
2022-10-30T23:36:37.051Z,98255.81
2022-10-30T23:39:07.355Z,98262.03
2022-10-30T23:41:34.537Z,98265.97
2022-10-30T23:44:12.577Z,98268.44
2022-10-30T23:46:39.727Z,98263.50
2022-10-30T23:49:06.700Z,98257.19
2022-10-30T23:51:35.582Z,98266.78
2022-10-30T23:54:02.707Z,98266.34
2022-10-30T23:56:29.733Z,98260.00
2022-10-30T23:58:56.894Z,98276.03
